sensor_id;sensor_type;location;lat;lon;timestamp;P1;durP1;ratioP1;P2;durP2;ratioP2
1682;SDS011;13252;53.596;10.060;2022-08-25T00:00:20;6.67;;;4.50;;
1682;SDS011;13252;53.596;10.060;2022-08-25T00:02:50;17.30;;;4.57;;
1682;SDS011;13252;53.596;10.060;2022-08-25T00:05:23;6.63;;;4.33;;
1682;SDS011;13252;53.596;10.060;2022-08-25T00:07:57;10.47;;;4.37;;
1682;SDS011;13252;53.596;10.060;2022-08-25T00:10:29;7.43;;;4.97;;
1682;SDS011;13252;53.596;10.060;2022-08-25T00:12:57;7.90;;;4.40;;
1682;SDS011;13252;53.596;10.060;2022-08-25T00:15:26;7.77;;;4.40;;
1682;SDS011;13252;53.596;10.060;2022-08-25T00:17:58;7.13;;;4.93;;
1682;SDS011;13252;53.596;10.060;2022-08-25T00:20:28;8.20;;;4.57;;
1682;SDS011;13252;53.596;10.060;2022-08-25T00:22:56;10.07;;;5.37;;
1682;SDS011;13252;53.596;10.060;2022-08-25T00:25:24;10.33;;;4.80;;
1682;SDS011;13252;53.596;10.060;2022-08-25T00:27:53;7.30;;;4.77;;
1682;SDS011;13252;53.596;10.060;2022-08-25T00:30:22;8.27;;;4.70;;
1682;SDS011;13252;53.596;10.060;2022-08-25T00:32:51;8.70;;;4.63;;
1682;SDS011;13252;53.596;10.060;2022-08-25T00:35:23;8.17;;;3.70;;
1682;SDS011;13252;53.596;10.060;2022-08-25T00:37:51;9.27;;;5.00;;
1682;SDS011;13252;53.596;10.060;2022-08-25T00:40:19;9.43;;;5.30;;
1682;SDS011;13252;53.596;10.060;2022-08-25T00:42:47;9.80;;;4.90;;
1682;SDS011;13252;53.596;10.060;2022-08-25T00:45:15;7.80;;;4.13;;
1682;SDS011;13252;53.596;10.060;2022-08-25T00:47:44;5.97;;;4.33;;
1682;SDS011;13252;53.596;10.060;2022-08-25T00:50:13;9.90;;;5.10;;
1682;SDS011;13252;53.596;10.060;2022-08-25T00:52:44;8.50;;;5.17;;
1682;SDS011;13252;53.596;10.060;2022-08-25T00:55:18;8.40;;;6.17;;
1682;SDS011;13252;53.596;10.060;2022-08-25T00:57:49;8.00;;;5.10;;
1682;SDS011;13252;53.596;10.060;2022-08-25T01:00:25;7.50;;;5.43;;
1682;SDS011;13252;53.596;10.060;2022-08-25T01:02:55;8.03;;;5.50;;
1682;SDS011;13252;53.596;10.060;2022-08-25T01:05:29;11.47;;;5.90;;
1682;SDS011;13252;53.596;10.060;2022-08-25T01:08:07;7.30;;;4.77;;
1682;SDS011;13252;53.596;10.060;2022-08-25T01:10:42;7.60;;;5.30;;
1682;SDS011;13252;53.596;10.060;2022-08-25T01:13:23;7.53;;;4.83;;
1682;SDS011;13252;53.596;10.060;2022-08-25T01:15:56;12.30;;;6.10;;
1682;SDS011;13252;53.596;10.060;2022-08-25T01:18:42;12.60;;;6.20;;
1682;SDS011;13252;53.596;10.060;2022-08-25T01:21:14;12.50;;;6.13;;
1682;SDS011;13252;53.596;10.060;2022-08-25T01:23:43;9.27;;;5.30;;
1682;SDS011;13252;53.596;10.060;2022-08-25T01:26:12;7.40;;;5.50;;
1682;SDS011;13252;53.596;10.060;2022-08-25T01:28:41;10.53;;;5.80;;
1682;SDS011;13252;53.596;10.060;2022-08-25T01:31:24;6.30;;;4.97;;
1682;SDS011;13252;53.596;10.060;2022-08-25T01:33:55;11.63;;;5.73;;
1682;SDS011;13252;53.596;10.060;2022-08-25T01:36:26;9.07;;;4.90;;
1682;SDS011;13252;53.596;10.060;2022-08-25T01:38:54;10.50;;;5.67;;
1682;SDS011;13252;53.596;10.060;2022-08-25T01:41:25;12.57;;;6.00;;
1682;SDS011;13252;53.596;10.060;2022-08-25T01:44:03;11.53;;;5.60;;
1682;SDS011;13252;53.596;10.060;2022-08-25T01:46:36;9.67;;;6.00;;
1682;SDS011;13252;53.596;10.060;2022-08-25T01:49:04;11.63;;;5.57;;
1682;SDS011;13252;53.596;10.060;2022-08-25T01:51:36;7.33;;;5.10;;
1682;SDS011;13252;53.596;10.060;2022-08-25T01:54:05;13.23;;;5.60;;
1682;SDS011;13252;53.596;10.060;2022-08-25T01:56:33;13.20;;;5.57;;
1682;SDS011;13252;53.596;10.060;2022-08-25T01:59:04;9.90;;;6.10;;
1682;SDS011;13252;53.596;10.060;2022-08-25T02:01:32;6.93;;;5.70;;
1682;SDS011;13252;53.596;10.060;2022-08-25T02:04:01;7.17;;;5.90;;
1682;SDS011;13252;53.596;10.060;2022-08-25T02:06:31;7.43;;;5.93;;
1682;SDS011;13252;53.596;10.060;2022-08-25T02:09:09;10.87;;;6.07;;
1682;SDS011;13252;53.596;10.060;2022-08-25T02:11:45;9.37;;;5.70;;
1682;SDS011;13252;53.596;10.060;2022-08-25T02:14:14;6.50;;;5.50;;
1682;SDS011;13252;53.596;10.060;2022-08-25T02:16:44;10.53;;;5.60;;
1682;SDS011;13252;53.596;10.060;2022-08-25T02:19:14;9.60;;;6.40;;
1682;SDS011;13252;53.596;10.060;2022-08-25T02:21:44;14.23;;;8.50;;
1682;SDS011;13252;53.596;10.060;2022-08-25T02:24:12;9.60;;;5.60;;
1682;SDS011;13252;53.596;10.060;2022-08-25T02:26:40;8.00;;;6.03;;
1682;SDS011;13252;53.596;10.060;2022-08-25T02:29:08;10.90;;;5.83;;
1682;SDS011;13252;53.596;10.060;2022-08-25T02:31:36;9.50;;;6.33;;
1682;SDS011;13252;53.596;10.060;2022-08-25T02:34:05;9.43;;;5.73;;
1682;SDS011;13252;53.596;10.060;2022-08-25T02:36:34;8.30;;;6.03;;
1682;SDS011;13252;53.596;10.060;2022-08-25T02:39:04;10.23;;;5.63;;
1682;SDS011;13252;53.596;10.060;2022-08-25T02:41:32;8.30;;;6.50;;
1682;SDS011;13252;53.596;10.060;2022-08-25T02:44:01;10.10;;;5.90;;
1682;SDS011;13252;53.596;10.060;2022-08-25T02:46:29;6.47;;;5.40;;
1682;SDS011;13252;53.596;10.060;2022-08-25T02:48:57;11.27;;;5.67;;
1682;SDS011;13252;53.596;10.060;2022-08-25T02:51:25;10.40;;;5.83;;
1682;SDS011;13252;53.596;10.060;2022-08-25T02:53:55;9.30;;;6.40;;
1682;SDS011;13252;53.596;10.060;2022-08-25T02:56:25;9.20;;;6.03;;
1682;SDS011;13252;53.596;10.060;2022-08-25T02:58:52;7.87;;;6.00;;
1682;SDS011;13252;53.596;10.060;2022-08-25T03:01:20;10.93;;;6.57;;
1682;SDS011;13252;53.596;10.060;2022-08-25T03:03:54;9.93;;;6.00;;
1682;SDS011;13252;53.596;10.060;2022-08-25T03:06:22;9.50;;;6.60;;
1682;SDS011;13252;53.596;10.060;2022-08-25T03:08:50;7.00;;;5.87;;
1682;SDS011;13252;53.596;10.060;2022-08-25T03:11:19;15.63;;;6.13;;
1682;SDS011;13252;53.596;10.060;2022-08-25T03:13:48;7.90;;;6.33;;
1682;SDS011;13252;53.596;10.060;2022-08-25T03:16:17;10.30;;;6.60;;
1682;SDS011;13252;53.596;10.060;2022-08-25T03:18:45;8.93;;;6.10;;
1682;SDS011;13252;53.596;10.060;2022-08-25T03:21:14;13.27;;;6.73;;
1682;SDS011;13252;53.596;10.060;2022-08-25T03:23:43;9.70;;;7.43;;
1682;SDS011;13252;53.596;10.060;2022-08-25T03:26:11;9.40;;;6.90;;
1682;SDS011;13252;53.596;10.060;2022-08-25T03:28:58;7.80;;;7.03;;
1682;SDS011;13252;53.596;10.060;2022-08-25T03:31:30;12.40;;;7.17;;
1682;SDS011;13252;53.596;10.060;2022-08-25T03:33:59;9.70;;;6.87;;
1682;SDS011;13252;53.596;10.060;2022-08-25T03:36:27;16.03;;;6.50;;
1682;SDS011;13252;53.596;10.060;2022-08-25T03:38:54;15.03;;;7.43;;
1682;SDS011;13252;53.596;10.060;2022-08-25T03:41:27;12.20;;;6.60;;
1682;SDS011;13252;53.596;10.060;2022-08-25T03:43:59;11.17;;;7.60;;
1682;SDS011;13252;53.596;10.060;2022-08-25T03:46:29;11.57;;;7.30;;
1682;SDS011;13252;53.596;10.060;2022-08-25T03:48:59;17.83;;;6.80;;
1682;SDS011;13252;53.596;10.060;2022-08-25T03:51:28;9.93;;;6.70;;
1682;SDS011;13252;53.596;10.060;2022-08-25T03:53:57;9.63;;;7.00;;
1682;SDS011;13252;53.596;10.060;2022-08-25T03:56:26;10.50;;;7.27;;
1682;SDS011;13252;53.596;10.060;2022-08-25T03:58:54;16.30;;;7.50;;
1682;SDS011;13252;53.596;10.060;2022-08-25T04:01:24;10.27;;;6.80;;
1682;SDS011;13252;53.596;10.060;2022-08-25T04:03:52;8.53;;;6.80;;
1682;SDS011;13252;53.596;10.060;2022-08-25T04:06:20;10.10;;;7.13;;
1682;SDS011;13252;53.596;10.060;2022-08-25T04:08:48;14.13;;;7.73;;
1682;SDS011;13252;53.596;10.060;2022-08-25T04:11:19;14.30;;;7.23;;
1682;SDS011;13252;53.596;10.060;2022-08-25T04:13:49;9.10;;;7.07;;
1682;SDS011;13252;53.596;10.060;2022-08-25T04:16:19;10.37;;;7.30;;
1682;SDS011;13252;53.596;10.060;2022-08-25T04:18:51;12.63;;;6.87;;
1682;SDS011;13252;53.596;10.060;2022-08-25T04:21:19;10.30;;;7.60;;
1682;SDS011;13252;53.596;10.060;2022-08-25T04:23:48;12.77;;;6.83;;
1682;SDS011;13252;53.596;10.060;2022-08-25T04:26:17;10.13;;;7.20;;
1682;SDS011;13252;53.596;10.060;2022-08-25T04:28:48;8.80;;;6.50;;
1682;SDS011;13252;53.596;10.060;2022-08-25T04:31:16;11.60;;;7.57;;
1682;SDS011;13252;53.596;10.060;2022-08-25T04:33:45;12.50;;;7.70;;
1682;SDS011;13252;53.596;10.060;2022-08-25T04:36:15;10.23;;;7.70;;
1682;SDS011;13252;53.596;10.060;2022-08-25T04:38:44;7.87;;;7.03;;
1682;SDS011;13252;53.596;10.060;2022-08-25T04:41:13;9.57;;;8.10;;
1682;SDS011;13252;53.596;10.060;2022-08-25T04:43:42;14.27;;;7.40;;
1682;SDS011;13252;53.596;10.060;2022-08-25T04:46:12;13.20;;;8.30;;
1682;SDS011;13252;53.596;10.060;2022-08-25T04:48:45;10.67;;;8.87;;
1682;SDS011;13252;53.596;10.060;2022-08-25T04:51:15;13.90;;;7.03;;
1682;SDS011;13252;53.596;10.060;2022-08-25T04:53:44;10.03;;;7.10;;
1682;SDS011;13252;53.596;10.060;2022-08-25T04:56:13;9.70;;;7.63;;
1682;SDS011;13252;53.596;10.060;2022-08-25T04:58:41;9.73;;;7.20;;
1682;SDS011;13252;53.596;10.060;2022-08-25T05:01:09;15.03;;;7.77;;
1682;SDS011;13252;53.596;10.060;2022-08-25T05:03:40;8.67;;;7.37;;
1682;SDS011;13252;53.596;10.060;2022-08-25T05:06:08;11.73;;;7.97;;
1682;SDS011;13252;53.596;10.060;2022-08-25T05:08:42;10.97;;;7.93;;
1682;SDS011;13252;53.596;10.060;2022-08-25T05:11:12;10.37;;;8.43;;
1682;SDS011;13252;53.596;10.060;2022-08-25T05:13:41;12.57;;;8.33;;
1682;SDS011;13252;53.596;10.060;2022-08-25T05:16:15;14.57;;;8.57;;
1682;SDS011;13252;53.596;10.060;2022-08-25T05:18:43;8.60;;;7.70;;
1682;SDS011;13252;53.596;10.060;2022-08-25T05:21:12;10.90;;;8.50;;
1682;SDS011;13252;53.596;10.060;2022-08-25T05:23:40;16.37;;;8.50;;
1682;SDS011;13252;53.596;10.060;2022-08-25T05:26:10;13.63;;;8.80;;
1682;SDS011;13252;53.596;10.060;2022-08-25T05:28:45;10.40;;;9.10;;
1682;SDS011;13252;53.596;10.060;2022-08-25T05:31:13;20.70;;;9.23;;
1682;SDS011;13252;53.596;10.060;2022-08-25T05:33:41;10.80;;;9.60;;
1682;SDS011;13252;53.596;10.060;2022-08-25T05:36:10;29.43;;;12.00;;
1682;SDS011;13252;53.596;10.060;2022-08-25T05:38:38;16.03;;;11.57;;
1682;SDS011;13252;53.596;10.060;2022-08-25T05:41:07;28.10;;;12.43;;
1682;SDS011;13252;53.596;10.060;2022-08-25T05:43:38;27.47;;;12.07;;
1682;SDS011;13252;53.596;10.060;2022-08-25T05:46:07;15.43;;;12.20;;
1682;SDS011;13252;53.596;10.060;2022-08-25T05:48:35;13.57;;;12.17;;
1682;SDS011;13252;53.596;10.060;2022-08-25T05:51:04;16.93;;;13.67;;
1682;SDS011;13252;53.596;10.060;2022-08-25T05:53:36;16.80;;;11.40;;
1682;SDS011;13252;53.596;10.060;2022-08-25T05:56:05;17.17;;;14.00;;
1682;SDS011;13252;53.596;10.060;2022-08-25T05:58:34;14.73;;;13.20;;
1682;SDS011;13252;53.596;10.060;2022-08-25T06:01:03;17.67;;;12.77;;
1682;SDS011;13252;53.596;10.060;2022-08-25T06:03:45;16.50;;;13.83;;
1682;SDS011;13252;53.596;10.060;2022-08-25T06:06:13;18.93;;;14.30;;
1682;SDS011;13252;53.596;10.060;2022-08-25T06:08:41;17.93;;;14.53;;
1682;SDS011;13252;53.596;10.060;2022-08-25T06:11:09;22.93;;;14.87;;
1682;SDS011;13252;53.596;10.060;2022-08-25T06:13:39;17.10;;;13.47;;
1682;SDS011;13252;53.596;10.060;2022-08-25T06:16:06;24.20;;;16.57;;
1682;SDS011;13252;53.596;10.060;2022-08-25T06:18:34;21.20;;;15.23;;
1682;SDS011;13252;53.596;10.060;2022-08-25T06:21:06;18.40;;;14.17;;
1682;SDS011;13252;53.596;10.060;2022-08-25T06:23:35;16.83;;;15.13;;
1682;SDS011;13252;53.596;10.060;2022-08-25T06:26:03;20.33;;;16.27;;
1682;SDS011;13252;53.596;10.060;2022-08-25T06:28:31;26.67;;;15.80;;
1682;SDS011;13252;53.596;10.060;2022-08-25T06:31:00;21.60;;;16.37;;
1682;SDS011;13252;53.596;10.060;2022-08-25T06:33:28;16.23;;;14.30;;
1682;SDS011;13252;53.596;10.060;2022-08-25T06:35:56;17.57;;;15.40;;
1682;SDS011;13252;53.596;10.060;2022-08-25T06:38:24;20.33;;;17.40;;
1682;SDS011;13252;53.596;10.060;2022-08-25T06:40:52;21.10;;;15.97;;
1682;SDS011;13252;53.596;10.060;2022-08-25T06:43:22;20.27;;;16.37;;
1682;SDS011;13252;53.596;10.060;2022-08-25T06:45:49;20.53;;;14.77;;
1682;SDS011;13252;53.596;10.060;2022-08-25T06:48:18;17.43;;;15.43;;
1682;SDS011;13252;53.596;10.060;2022-08-25T06:50:46;18.07;;;13.80;;
1682;SDS011;13252;53.596;10.060;2022-08-25T06:53:13;16.10;;;14.50;;
1682;SDS011;13252;53.596;10.060;2022-08-25T06:55:41;16.93;;;14.90;;
1682;SDS011;13252;53.596;10.060;2022-08-25T06:58:09;16.17;;;14.43;;
1682;SDS011;13252;53.596;10.060;2022-08-25T07:00:36;15.20;;;13.73;;
1682;SDS011;13252;53.596;10.060;2022-08-25T07:03:04;15.53;;;14.00;;
1682;SDS011;13252;53.596;10.060;2022-08-25T07:05:33;18.23;;;13.47;;
1682;SDS011;13252;53.596;10.060;2022-08-25T07:08:09;16.83;;;15.00;;
1682;SDS011;13252;53.596;10.060;2022-08-25T07:10:37;17.87;;;15.50;;
1682;SDS011;13252;53.596;10.060;2022-08-25T07:13:05;16.70;;;15.00;;
1682;SDS011;13252;53.596;10.060;2022-08-25T07:15:36;16.33;;;14.60;;
1682;SDS011;13252;53.596;10.060;2022-08-25T07:18:04;15.83;;;13.43;;
1682;SDS011;13252;53.596;10.060;2022-08-25T07:20:34;18.40;;;14.47;;
1682;SDS011;13252;53.596;10.060;2022-08-25T07:23:02;19.53;;;16.00;;
1682;SDS011;13252;53.596;10.060;2022-08-25T07:25:29;18.50;;;16.10;;
1682;SDS011;13252;53.596;10.060;2022-08-25T07:27:57;18.13;;;14.93;;
1682;SDS011;13252;53.596;10.060;2022-08-25T07:30:25;20.80;;;16.30;;
1682;SDS011;13252;53.596;10.060;2022-08-25T07:32:52;18.27;;;15.43;;
1682;SDS011;13252;53.596;10.060;2022-08-25T07:35:33;18.60;;;16.67;;
1682;SDS011;13252;53.596;10.060;2022-08-25T07:38:03;17.23;;;14.93;;
1682;SDS011;13252;53.596;10.060;2022-08-25T07:40:35;17.97;;;15.70;;
1682;SDS011;13252;53.596;10.060;2022-08-25T07:43:08;17.33;;;15.53;;
1682;SDS011;13252;53.596;10.060;2022-08-25T07:45:37;16.23;;;14.63;;
1682;SDS011;13252;53.596;10.060;2022-08-25T07:48:14;15.03;;;13.63;;
1682;SDS011;13252;53.596;10.060;2022-08-25T07:50:47;15.43;;;13.90;;
1682;SDS011;13252;53.596;10.060;2022-08-25T07:53:15;14.67;;;13.17;;
1682;SDS011;13252;53.596;10.060;2022-08-25T07:55:43;16.37;;;13.90;;
1682;SDS011;13252;53.596;10.060;2022-08-25T07:58:13;14.67;;;13.10;;
1682;SDS011;13252;53.596;10.060;2022-08-25T08:00:41;15.10;;;13.53;;
1682;SDS011;13252;53.596;10.060;2022-08-25T08:03:09;15.70;;;14.13;;
1682;SDS011;13252;53.596;10.060;2022-08-25T08:05:58;19.13;;;15.07;;
1682;SDS011;13252;53.596;10.060;2022-08-25T08:08:26;17.50;;;14.80;;
1682;SDS011;13252;53.596;10.060;2022-08-25T08:10:54;15.93;;;14.33;;
1682;SDS011;13252;53.596;10.060;2022-08-25T08:13:30;20.00;;;15.40;;
1682;SDS011;13252;53.596;10.060;2022-08-25T08:16:07;15.47;;;13.97;;
1682;SDS011;13252;53.596;10.060;2022-08-25T08:18:36;16.07;;;14.10;;
1682;SDS011;13252;53.596;10.060;2022-08-25T08:21:09;15.60;;;13.50;;
1682;SDS011;13252;53.596;10.060;2022-08-25T08:23:37;15.07;;;13.57;;
1682;SDS011;13252;53.596;10.060;2022-08-25T08:26:05;16.13;;;14.60;;
1682;SDS011;13252;53.596;10.060;2022-08-25T08:28:34;17.83;;;14.37;;
1682;SDS011;13252;53.596;10.060;2022-08-25T08:31:03;15.30;;;13.63;;
1682;SDS011;13252;53.596;10.060;2022-08-25T08:33:36;15.33;;;13.83;;
1682;SDS011;13252;53.596;10.060;2022-08-25T08:36:08;15.70;;;14.13;;
1682;SDS011;13252;53.596;10.060;2022-08-25T08:38:38;16.97;;;15.07;;
1682;SDS011;13252;53.596;10.060;2022-08-25T08:41:11;16.13;;;13.70;;
1682;SDS011;13252;53.596;10.060;2022-08-25T08:44:23;17.70;;;13.13;;
1682;SDS011;13252;53.596;10.060;2022-08-25T08:46:55;17.23;;;13.73;;
1682;SDS011;13252;53.596;10.060;2022-08-25T08:49:36;24.60;;;13.90;;
1682;SDS011;13252;53.596;10.060;2022-08-25T08:52:10;24.60;;;15.17;;
1682;SDS011;13252;53.596;10.060;2022-08-25T08:54:40;16.30;;;14.30;;
1682;SDS011;13252;53.596;10.060;2022-08-25T08:57:10;18.93;;;14.30;;
1682;SDS011;13252;53.596;10.060;2022-08-25T08:59:43;16.00;;;11.03;;
1682;SDS011;13252;53.596;10.060;2022-08-25T09:02:17;14.73;;;11.70;;
1682;SDS011;13252;53.596;10.060;2022-08-25T09:05:10;12.93;;;11.23;;
1682;SDS011;13252;53.596;10.060;2022-08-25T09:07:43;15.30;;;13.70;;
1682;SDS011;13252;53.596;10.060;2022-08-25T09:10:13;20.37;;;13.60;;
1682;SDS011;13252;53.596;10.060;2022-08-25T09:12:42;14.57;;;13.10;;
1682;SDS011;13252;53.596;10.060;2022-08-25T09:15:15;14.53;;;12.13;;
1682;SDS011;13252;53.596;10.060;2022-08-25T09:17:52;17.13;;;12.57;;
1682;SDS011;13252;53.596;10.060;2022-08-25T09:20:43;14.73;;;13.17;;
1682;SDS011;13252;53.596;10.060;2022-08-25T09:23:20;13.23;;;11.93;;
1682;SDS011;13252;53.596;10.060;2022-08-25T09:25:55;15.90;;;14.20;;
1682;SDS011;13252;53.596;10.060;2022-08-25T09:28:29;17.07;;;15.47;;
1682;SDS011;13252;53.596;10.060;2022-08-25T09:30:59;16.70;;;15.17;;
1682;SDS011;13252;53.596;10.060;2022-08-25T09:33:28;15.90;;;14.50;;
1682;SDS011;13252;53.596;10.060;2022-08-25T09:36:01;16.00;;;14.50;;
1682;SDS011;13252;53.596;10.060;2022-08-25T09:38:35;15.53;;;14.13;;
1682;SDS011;13252;53.596;10.060;2022-08-25T09:41:03;17.27;;;14.57;;
1682;SDS011;13252;53.596;10.060;2022-08-25T09:43:33;15.03;;;12.43;;
1682;SDS011;13252;53.596;10.060;2022-08-25T09:46:07;14.03;;;12.60;;
1682;SDS011;13252;53.596;10.060;2022-08-25T09:48:44;13.53;;;12.00;;
1682;SDS011;13252;53.596;10.060;2022-08-25T09:51:23;13.07;;;11.67;;
1682;SDS011;13252;53.596;10.060;2022-08-25T09:53:54;14.60;;;12.10;;
1682;SDS011;13252;53.596;10.060;2022-08-25T09:56:24;15.30;;;11.53;;
1682;SDS011;13252;53.596;10.060;2022-08-25T09:58:53;12.83;;;10.10;;
1682;SDS011;13252;53.596;10.060;2022-08-25T10:01:28;14.37;;;8.87;;
1682;SDS011;13252;53.596;10.060;2022-08-25T10:04:01;12.63;;;9.50;;
1682;SDS011;13252;53.596;10.060;2022-08-25T10:06:33;12.37;;;9.17;;
1682;SDS011;13252;53.596;10.060;2022-08-25T10:09:05;10.13;;;9.13;;
1682;SDS011;13252;53.596;10.060;2022-08-25T10:11:35;12.10;;;8.37;;
1682;SDS011;13252;53.596;10.060;2022-08-25T10:14:07;12.40;;;8.20;;
1682;SDS011;13252;53.596;10.060;2022-08-25T10:16:43;9.00;;;7.60;;
1682;SDS011;13252;53.596;10.060;2022-08-25T10:22:06;12.53;;;5.67;;
1682;SDS011;13252;53.596;10.060;2022-08-25T10:24:38;10.43;;;6.23;;
1682;SDS011;13252;53.596;10.060;2022-08-25T10:27:13;8.30;;;5.37;;
1682;SDS011;13252;53.596;10.060;2022-08-25T10:29:55;16.30;;;5.87;;
1682;SDS011;13252;53.596;10.060;2022-08-25T10:32:32;15.40;;;5.33;;
1682;SDS011;13252;53.596;10.060;2022-08-25T10:35:08;9.10;;;4.70;;
1682;SDS011;13252;53.596;10.060;2022-08-25T10:37:43;7.17;;;4.63;;
1682;SDS011;13252;53.596;10.060;2022-08-25T10:40:20;8.43;;;4.57;;
1682;SDS011;13252;53.596;10.060;2022-08-25T10:42:56;7.00;;;4.10;;
1682;SDS011;13252;53.596;10.060;2022-08-25T10:45:34;9.60;;;4.63;;
1682;SDS011;13252;53.596;10.060;2022-08-25T10:48:22;11.20;;;5.03;;
1682;SDS011;13252;53.596;10.060;2022-08-25T10:50:55;16.90;;;4.70;;
1682;SDS011;13252;53.596;10.060;2022-08-25T10:53:28;10.77;;;4.97;;
1682;SDS011;13252;53.596;10.060;2022-08-25T10:56:05;6.70;;;4.90;;
1682;SDS011;13252;53.596;10.060;2022-08-25T10:58:42;9.20;;;4.73;;
1682;SDS011;13252;53.596;10.060;2022-08-25T11:01:18;8.07;;;4.00;;
1682;SDS011;13252;53.596;10.060;2022-08-25T11:03:55;7.27;;;4.20;;
1682;SDS011;13252;53.596;10.060;2022-08-25T11:06:28;11.10;;;4.13;;
1682;SDS011;13252;53.596;10.060;2022-08-25T11:09:03;13.80;;;4.33;;
1682;SDS011;13252;53.596;10.060;2022-08-25T11:11:35;15.73;;;4.00;;
1682;SDS011;13252;53.596;10.060;2022-08-25T11:14:06;10.97;;;3.80;;
1682;SDS011;13252;53.596;10.060;2022-08-25T11:16:37;6.20;;;3.70;;
1682;SDS011;13252;53.596;10.060;2022-08-25T11:19:12;9.53;;;4.13;;
1682;SDS011;13252;53.596;10.060;2022-08-25T11:21:47;7.33;;;4.20;;
1682;SDS011;13252;53.596;10.060;2022-08-25T11:24:35;21.10;;;6.43;;
1682;SDS011;13252;53.596;10.060;2022-08-25T11:27:20;10.77;;;3.83;;
1682;SDS011;13252;53.596;10.060;2022-08-25T11:29:53;7.37;;;3.80;;
1682;SDS011;13252;53.596;10.060;2022-08-25T11:32:26;11.10;;;4.10;;
1682;SDS011;13252;53.596;10.060;2022-08-25T11:34:59;10.17;;;4.97;;
1682;SDS011;13252;53.596;10.060;2022-08-25T11:37:28;10.63;;;4.13;;
1682;SDS011;13252;53.596;10.060;2022-08-25T11:43:04;6.33;;;3.50;;
1682;SDS011;13252;53.596;10.060;2022-08-25T11:45:42;9.87;;;4.60;;
1682;SDS011;13252;53.596;10.060;2022-08-25T11:48:23;9.70;;;3.47;;
1682;SDS011;13252;53.596;10.060;2022-08-25T11:50:57;6.80;;;3.67;;
1682;SDS011;13252;53.596;10.060;2022-08-25T11:53:28;6.73;;;3.60;;
1682;SDS011;13252;53.596;10.060;2022-08-25T11:55:58;7.27;;;3.77;;
1682;SDS011;13252;53.596;10.060;2022-08-25T11:58:40;5.37;;;3.50;;
1682;SDS011;13252;53.596;10.060;2022-08-25T12:01:11;4.53;;;3.20;;
1682;SDS011;13252;53.596;10.060;2022-08-25T12:04:32;6.53;;;3.80;;
1682;SDS011;13252;53.596;10.060;2022-08-25T12:07:27;7.97;;;3.67;;
1682;SDS011;13252;53.596;10.060;2022-08-25T12:13:01;8.20;;;3.70;;
1682;SDS011;13252;53.596;10.060;2022-08-25T12:15:59;5.57;;;3.10;;
1682;SDS011;13252;53.596;10.060;2022-08-25T12:18:38;6.27;;;3.63;;
1682;SDS011;13252;53.596;10.060;2022-08-25T12:21:13;8.67;;;3.20;;
1682;SDS011;13252;53.596;10.060;2022-08-25T12:23:43;7.63;;;3.70;;
1682;SDS011;13252;53.596;10.060;2022-08-25T12:26:19;8.57;;;3.50;;
1682;SDS011;13252;53.596;10.060;2022-08-25T12:29:05;10.10;;;3.80;;
1682;SDS011;13252;53.596;10.060;2022-08-25T12:31:50;9.10;;;3.37;;
1682;SDS011;13252;53.596;10.060;2022-08-25T12:37:52;5.10;;;3.17;;
1682;SDS011;13252;53.596;10.060;2022-08-25T12:40:22;6.07;;;3.90;;
1682;SDS011;13252;53.596;10.060;2022-08-25T12:43:01;7.10;;;3.47;;
1682;SDS011;13252;53.596;10.060;2022-08-25T12:45:40;8.63;;;3.87;;
1682;SDS011;13252;53.596;10.060;2022-08-25T12:51:15;7.07;;;2.80;;
1682;SDS011;13252;53.596;10.060;2022-08-25T12:53:49;14.93;;;3.17;;
1682;SDS011;13252;53.596;10.060;2022-08-25T12:56:24;7.73;;;3.63;;
1682;SDS011;13252;53.596;10.060;2022-08-25T12:59:04;5.60;;;3.10;;
1682;SDS011;13252;53.596;10.060;2022-08-25T13:01:43;7.53;;;3.57;;
1682;SDS011;13252;53.596;10.060;2022-08-25T13:04:26;8.83;;;3.40;;
1682;SDS011;13252;53.596;10.060;2022-08-25T13:07:08;5.50;;;3.00;;
1682;SDS011;13252;53.596;10.060;2022-08-25T13:09:52;14.07;;;3.10;;
1682;SDS011;13252;53.596;10.060;2022-08-25T13:12:29;10.50;;;3.50;;
1682;SDS011;13252;53.596;10.060;2022-08-25T13:14:59;7.57;;;2.87;;
1682;SDS011;13252;53.596;10.060;2022-08-25T13:17:28;8.03;;;3.63;;
1682;SDS011;13252;53.596;10.060;2022-08-25T13:20:17;10.10;;;3.70;;
1682;SDS011;13252;53.596;10.060;2022-08-25T13:22:49;4.90;;;2.83;;
1682;SDS011;13252;53.596;10.060;2022-08-25T13:25:23;6.43;;;3.47;;
1682;SDS011;13252;53.596;10.060;2022-08-25T13:27:58;7.37;;;3.40;;
1682;SDS011;13252;53.596;10.060;2022-08-25T13:30:29;5.63;;;2.90;;
1682;SDS011;13252;53.596;10.060;2022-08-25T13:32:59;10.67;;;3.50;;
1682;SDS011;13252;53.596;10.060;2022-08-25T13:35:47;8.70;;;3.60;;
1682;SDS011;13252;53.596;10.060;2022-08-25T13:38:17;12.30;;;3.23;;
1682;SDS011;13252;53.596;10.060;2022-08-25T13:40:44;8.50;;;3.73;;
1682;SDS011;13252;53.596;10.060;2022-08-25T13:43:12;5.93;;;2.97;;
1682;SDS011;13252;53.596;10.060;2022-08-25T13:45:43;5.90;;;2.80;;
1682;SDS011;13252;53.596;10.060;2022-08-25T13:48:30;11.50;;;3.37;;
1682;SDS011;13252;53.596;10.060;2022-08-25T13:51:05;5.30;;;3.20;;
1682;SDS011;13252;53.596;10.060;2022-08-25T13:53:46;15.47;;;3.43;;
1682;SDS011;13252;53.596;10.060;2022-08-25T13:56:22;9.50;;;3.40;;
1682;SDS011;13252;53.596;10.060;2022-08-25T13:58:52;10.97;;;3.50;;
1682;SDS011;13252;53.596;10.060;2022-08-25T14:01:22;15.17;;;4.00;;
1682;SDS011;13252;53.596;10.060;2022-08-25T14:04:18;7.10;;;4.03;;
1682;SDS011;13252;53.596;10.060;2022-08-25T14:06:52;12.33;;;4.20;;
1682;SDS011;13252;53.596;10.060;2022-08-25T14:09:37;5.87;;;3.47;;
1682;SDS011;13252;53.596;10.060;2022-08-25T14:12:07;6.80;;;4.50;;
1682;SDS011;13252;53.596;10.060;2022-08-25T14:14:34;7.50;;;3.53;;
1682;SDS011;13252;53.596;10.060;2022-08-25T14:17:03;6.43;;;3.53;;
1682;SDS011;13252;53.596;10.060;2022-08-25T14:19:52;15.00;;;4.60;;
1682;SDS011;13252;53.596;10.060;2022-08-25T14:22:22;10.67;;;4.07;;
1682;SDS011;13252;53.596;10.060;2022-08-25T14:24:50;6.97;;;3.60;;
1682;SDS011;13252;53.596;10.060;2022-08-25T14:27:19;5.87;;;3.60;;
1682;SDS011;13252;53.596;10.060;2022-08-25T14:29:46;15.07;;;4.60;;
1682;SDS011;13252;53.596;10.060;2022-08-25T14:32:18;8.17;;;4.20;;
1682;SDS011;13252;53.596;10.060;2022-08-25T14:34:46;5.83;;;3.80;;
1682;SDS011;13252;53.596;10.060;2022-08-25T14:37:14;12.43;;;4.20;;
1682;SDS011;13252;53.596;10.060;2022-08-25T14:39:52;10.43;;;4.00;;
1682;SDS011;13252;53.596;10.060;2022-08-25T14:42:23;8.23;;;3.50;;
1682;SDS011;13252;53.596;10.060;2022-08-25T14:44:51;17.77;;;4.10;;
1682;SDS011;13252;53.596;10.060;2022-08-25T14:47:23;8.90;;;3.80;;
1682;SDS011;13252;53.596;10.060;2022-08-25T14:49:52;6.83;;;3.40;;
1682;SDS011;13252;53.596;10.060;2022-08-25T14:52:37;7.30;;;4.10;;
1682;SDS011;13252;53.596;10.060;2022-08-25T14:55:07;11.10;;;3.73;;
1682;SDS011;13252;53.596;10.060;2022-08-25T14:57:37;10.40;;;4.40;;
1682;SDS011;13252;53.596;10.060;2022-08-25T15:00:05;4.93;;;3.00;;
1682;SDS011;13252;53.596;10.060;2022-08-25T15:02:34;10.50;;;4.07;;
1682;SDS011;13252;53.596;10.060;2022-08-25T15:05:07;5.73;;;3.60;;
1682;SDS011;13252;53.596;10.060;2022-08-25T15:07:37;9.20;;;3.63;;
1682;SDS011;13252;53.596;10.060;2022-08-25T15:10:25;6.10;;;4.20;;
1682;SDS011;13252;53.596;10.060;2022-08-25T15:12:53;8.70;;;3.33;;
1682;SDS011;13252;53.596;10.060;2022-08-25T15:15:22;8.00;;;3.90;;
1682;SDS011;13252;53.596;10.060;2022-08-25T15:17:51;9.30;;;3.87;;
1682;SDS011;13252;53.596;10.060;2022-08-25T15:20:23;6.83;;;3.53;;